createdAt,value
2018-04-25T00:00:31.914Z,8.43
2018-04-25T00:02:59.438Z,10.07
2018-04-25T00:05:26.954Z,9.40
2018-04-25T00:07:55.233Z,9.70
2018-04-25T00:10:23.511Z,10.17
2018-04-25T00:12:51.795Z,9.20
2018-04-25T00:15:19.299Z,9.47
2018-04-25T00:17:46.798Z,9.90
2018-04-25T00:20:15.112Z,10.20
2018-04-25T00:22:42.663Z,9.53
2018-04-25T00:25:10.274Z,9.20
2018-04-25T00:27:37.834Z,9.77
2018-04-25T00:30:05.358Z,8.93
2018-04-25T00:32:32.881Z,8.87
2018-04-25T00:35:01.160Z,9.80
2018-04-25T00:37:28.681Z,10.40
2018-04-25T00:39:56.216Z,10.03
2018-04-25T00:42:23.716Z,10.03
2018-04-25T00:44:52.010Z,9.83
2018-04-25T00:47:20.286Z,9.50
2018-04-25T00:49:47.821Z,10.30
2018-04-25T00:52:15.374Z,10.27
2018-04-25T00:54:42.963Z,10.00
2018-04-25T00:57:10.423Z,10.47
2018-04-25T00:59:38.725Z,10.70
2018-04-25T01:02:06.245Z,10.30
2018-04-25T01:04:34.540Z,10.70
2018-04-25T01:07:02.051Z,11.87
2018-04-25T01:09:29.580Z,12.00
2018-04-25T01:11:57.133Z,13.77
2018-04-25T01:14:25.373Z,12.10
2018-04-25T01:16:53.656Z,13.20
2018-04-25T01:19:21.229Z,13.20
2018-04-25T01:21:51.245Z,12.80
2018-04-25T01:24:18.766Z,13.77
2018-04-25T01:26:52.929Z,13.07
2018-04-25T01:29:20.505Z,13.70
2018-04-25T01:31:48.939Z,14.03
2018-04-25T01:34:23.203Z,14.10
2018-04-25T01:36:56.609Z,13.27
2018-04-25T01:39:30.858Z,13.60
2018-04-25T01:41:58.412Z,12.80
2018-04-25T01:44:27.786Z,12.97
2018-04-25T01:47:13.837Z,13.23
2018-04-25T01:53:07.008Z,12.80
2018-04-25T01:55:47.180Z,12.50
2018-04-25T01:58:26.616Z,12.50
2018-04-25T02:01:06.158Z,12.83
2018-04-25T02:03:45.692Z,12.63
2018-04-25T02:06:13.213Z,12.70
2018-04-25T02:08:40.761Z,12.83
2018-04-25T02:11:08.280Z,11.90
2018-04-25T02:13:35.814Z,12.23
2018-04-25T02:16:04.111Z,10.70
2018-04-25T02:18:35.639Z,11.13
2018-04-25T02:21:03.931Z,11.20
2018-04-25T02:23:32.320Z,12.27
2018-04-25T02:25:59.832Z,11.50
2018-04-25T02:28:27.346Z,11.70
2018-04-25T02:30:54.893Z,11.97
2018-04-25T02:33:22.403Z,11.40
2018-04-25T02:35:49.965Z,11.90
2018-04-25T02:38:17.468Z,12.60
2018-04-25T02:40:45.031Z,11.93
2018-04-25T02:43:12.543Z,11.63
2018-04-25T02:45:40.083Z,11.33
2018-04-25T02:48:07.634Z,12.50
2018-04-25T02:50:35.143Z,11.80
2018-04-25T02:53:03.461Z,11.30
2018-04-25T02:55:30.963Z,11.20
2018-04-25T02:57:58.517Z,10.83
2018-04-25T03:00:26.060Z,10.70
2018-04-25T03:02:53.619Z,10.40
2018-04-25T03:05:21.121Z,10.53
2018-04-25T03:07:49.701Z,10.70
2018-04-25T03:10:18.003Z,10.50
2018-04-25T03:12:45.570Z,10.50
2018-04-25T03:15:13.108Z,11.10
2018-04-25T03:17:41.448Z,10.60
2018-04-25T03:20:08.977Z,10.50
2018-04-25T03:22:36.543Z,10.70
2018-04-25T03:25:04.059Z,10.53
2018-04-25T03:27:32.376Z,11.33
2018-04-25T03:29:59.896Z,10.67
2018-04-25T03:32:28.187Z,10.50
2018-04-25T03:34:55.716Z,11.43
2018-04-25T03:37:23.264Z,12.00
2018-04-25T03:39:50.795Z,11.00
2018-04-25T03:42:18.304Z,10.60
2018-04-25T03:44:46.602Z,9.97
2018-04-25T03:47:14.121Z,11.17
2018-04-25T03:49:41.635Z,11.83
2018-04-25T03:52:09.165Z,11.13
2018-04-25T03:54:36.772Z,11.13
2018-04-25T03:57:04.268Z,11.00
2018-04-25T03:59:32.601Z,10.20
2018-04-25T04:02:00.105Z,10.03
2018-04-25T04:04:28.393Z,10.00
2018-04-25T04:06:56.717Z,10.03
2018-04-25T04:09:24.232Z,9.80
2018-04-25T04:11:51.782Z,10.47
2018-04-25T04:14:20.064Z,9.93
2018-04-25T04:16:48.357Z,10.37
2018-04-25T04:19:15.906Z,10.57
2018-04-25T04:21:44.175Z,10.43
2018-04-25T04:24:12.481Z,10.70
2018-04-25T04:26:39.989Z,9.70
2018-04-25T04:29:07.507Z,10.03
2018-04-25T04:31:35.031Z,9.73
2018-04-25T04:34:02.562Z,10.27
2018-04-25T04:36:30.108Z,9.80
2018-04-25T04:38:57.635Z,9.30
2018-04-25T04:41:25.166Z,9.50
2018-04-25T04:43:52.690Z,11.50
2018-04-25T04:46:20.229Z,10.80
2018-04-25T04:48:47.746Z,11.90
2018-04-25T04:51:15.282Z,10.90
2018-04-25T04:53:42.841Z,11.43
2018-04-25T04:56:10.417Z,11.57
2018-04-25T04:58:38.692Z,10.43
2018-04-25T05:01:06.989Z,11.63
2018-04-25T05:03:34.498Z,11.20
2018-04-25T05:06:02.038Z,12.17
2018-04-25T05:08:29.653Z,10.37
2018-04-25T05:10:57.110Z,11.20
2018-04-25T05:13:24.681Z,11.77
2018-04-25T05:15:52.206Z,11.47
2018-04-25T05:18:19.768Z,10.60
2018-04-25T05:20:48.063Z,11.30
2018-04-25T05:23:16.369Z,12.27
2018-04-25T05:25:43.928Z,10.57
2018-04-25T05:28:11.444Z,12.00
2018-04-25T05:30:39.722Z,11.20
2018-04-25T05:33:07.312Z,12.80
2018-04-25T05:35:34.840Z,11.30
2018-04-25T05:38:03.133Z,10.93
2018-04-25T05:40:30.659Z,11.53
2018-04-25T05:42:58.175Z,10.87
2018-04-25T05:45:25.691Z,11.37
2018-04-25T05:47:53.205Z,11.10
2018-04-25T05:50:20.705Z,11.27
2018-04-25T05:52:48.261Z,10.93
2018-04-25T05:55:15.757Z,11.10
2018-04-25T05:57:43.261Z,11.30
2018-04-25T06:00:10.787Z,11.27
2018-04-25T06:02:38.313Z,11.03
2018-04-25T06:05:05.862Z,11.57
2018-04-25T06:07:34.169Z,11.90
2018-04-25T06:10:01.665Z,11.53
2018-04-25T06:12:29.311Z,11.97
2018-04-25T06:14:56.786Z,10.90
2018-04-25T06:17:24.330Z,10.97
2018-04-25T06:19:51.853Z,10.70
2018-04-25T06:22:19.366Z,11.80
2018-04-25T06:24:46.922Z,10.20
2018-04-25T06:27:14.477Z,10.83
2018-04-25T06:29:42.029Z,10.43
2018-04-25T06:32:09.571Z,9.40
2018-04-25T06:34:37.119Z,10.50
2018-04-25T06:37:04.639Z,10.53
2018-04-25T06:39:32.283Z,11.10
2018-04-25T06:42:00.529Z,11.00
2018-04-25T06:44:28.047Z,11.40
2018-04-25T06:46:56.374Z,10.63
2018-04-25T06:49:23.892Z,10.00
2018-04-25T06:51:52.185Z,10.33
2018-04-25T06:54:19.682Z,9.70
2018-04-25T06:56:47.341Z,9.20
2018-04-25T06:59:15.567Z,9.00
2018-04-25T07:01:43.861Z,9.30
2018-04-25T07:04:11.382Z,9.40
2018-04-25T07:06:39.669Z,10.20
2018-04-25T07:09:07.976Z,9.47
2018-04-25T07:11:35.486Z,8.23
2018-04-25T07:14:03.018Z,8.33
2018-04-25T07:16:30.512Z,8.10
2018-04-25T07:18:58.062Z,7.90
2018-04-25T07:21:25.625Z,7.53
2018-04-25T07:23:53.214Z,8.40
2018-04-25T07:26:20.702Z,7.60
2018-04-25T07:28:48.241Z,7.70
2018-04-25T07:31:15.737Z,7.90
2018-04-25T07:33:43.280Z,7.83
2018-04-25T07:36:10.785Z,8.33
2018-04-25T07:38:38.318Z,8.57
2018-04-25T07:41:05.852Z,7.37
2018-04-25T07:43:33.377Z,7.30
2018-04-25T07:46:01.641Z,7.67
2018-04-25T07:48:29.937Z,7.87
2018-04-25T07:50:58.230Z,8.60
2018-04-25T07:53:25.785Z,8.23
2018-04-25T07:55:53.293Z,7.67
2018-04-25T07:58:20.826Z,8.10
2018-04-25T08:00:48.393Z,8.30
2018-04-25T08:03:15.889Z,8.60
2018-04-25T08:05:44.205Z,8.57
2018-04-25T08:08:11.704Z,9.10
2018-04-25T08:10:39.206Z,8.80
2018-04-25T08:13:18.612Z,8.40
2018-04-25T08:15:57.989Z,8.60
2018-04-25T08:18:37.354Z,9.03
2018-04-25T08:21:09.467Z,8.57
2018-04-25T08:23:37.794Z,8.47
2018-04-25T08:26:05.286Z,8.40
2018-04-25T08:28:33.562Z,8.30
2018-04-25T08:31:01.111Z,8.13
2018-04-25T08:33:28.664Z,7.40
2018-04-25T08:35:56.160Z,7.90
2018-04-25T08:38:24.444Z,8.03
2018-04-25T08:40:51.986Z,7.70
2018-04-25T08:43:20.316Z,7.17
2018-04-25T08:45:47.888Z,7.77
2018-04-25T08:48:15.414Z,8.60
2018-04-25T08:50:42.919Z,7.67
2018-04-25T08:53:10.461Z,8.13
2018-04-25T08:55:37.977Z,7.63
2018-04-25T08:58:05.491Z,8.70
2018-04-25T09:00:33.031Z,7.00
2018-04-25T09:03:00.535Z,7.43
2018-04-25T09:05:28.856Z,6.83
2018-04-25T09:07:56.385Z,7.40
2018-04-25T09:10:24.673Z,6.70
2018-04-25T09:12:52.213Z,6.90
2018-04-25T09:15:20.501Z,7.93
2018-04-25T09:17:48.804Z,7.73
2018-04-25T09:20:16.352Z,7.50
2018-04-25T09:22:43.894Z,7.43
2018-04-25T09:25:12.169Z,7.10
2018-04-25T09:27:40.444Z,7.20
2018-04-25T09:30:07.991Z,7.30
2018-04-25T09:32:35.522Z,6.63
2018-04-25T09:35:03.195Z,6.80
2018-04-25T09:37:31.513Z,7.57
2018-04-25T09:39:59.009Z,6.53
2018-04-25T09:42:26.560Z,7.10
2018-04-25T09:44:54.102Z,6.80
2018-04-25T09:47:21.663Z,6.33
2018-04-25T09:49:49.206Z,5.90
2018-04-25T09:52:16.712Z,6.43
2018-04-25T09:54:44.251Z,6.47
2018-04-25T09:57:11.773Z,5.73
2018-04-25T09:59:40.044Z,5.83
2018-04-25T10:02:08.373Z,5.53
2018-04-25T10:04:35.875Z,5.30
2018-04-25T10:07:04.193Z,5.73
2018-04-25T10:09:31.737Z,5.80
2018-04-25T10:11:59.258Z,7.13
2018-04-25T10:14:26.798Z,5.90
2018-04-25T10:16:54.344Z,6.23
2018-04-25T10:19:21.853Z,6.63
2018-04-25T10:21:49.406Z,5.97
2018-04-25T10:24:17.683Z,5.80
2018-04-25T10:26:46.006Z,5.17
2018-04-25T10:29:13.504Z,5.80
2018-04-25T10:31:41.786Z,5.43
2018-04-25T10:34:09.331Z,5.10
2018-04-25T10:36:36.858Z,5.30
2018-04-25T10:39:04.345Z,5.83
2018-04-25T10:41:31.881Z,10.97
2018-04-25T10:43:59.397Z,5.70
2018-04-25T10:46:27.685Z,5.40
2018-04-25T10:48:55.262Z,4.80
2018-04-25T10:51:22.765Z,5.23
2018-04-25T10:53:50.281Z,5.50
2018-04-25T10:56:17.821Z,5.80
2018-04-25T10:58:45.355Z,5.80
2018-04-25T11:01:13.655Z,6.50
2018-04-25T11:03:41.224Z,6.30
2018-04-25T11:06:08.741Z,11.40
2018-04-25T11:08:37.012Z,6.43
2018-04-25T11:11:04.545Z,7.10
2018-04-25T11:13:32.073Z,5.87
2018-04-25T11:15:59.590Z,8.30
2018-04-25T11:18:27.113Z,6.20
2018-04-25T11:20:54.598Z,6.30
2018-04-25T11:23:22.128Z,6.10
2018-04-25T11:25:49.697Z,5.93
2018-04-25T11:28:17.233Z,6.40
2018-04-25T11:30:44.760Z,6.13
2018-04-25T11:33:12.301Z,5.87
2018-04-25T11:35:39.821Z,6.00
2018-04-25T11:38:07.399Z,6.17
2018-04-25T11:40:34.965Z,6.07
2018-04-25T11:43:02.514Z,5.70
2018-04-25T11:45:30.020Z,5.10
2018-04-25T11:47:57.738Z,4.63
2018-04-25T11:50:25.277Z,4.97
2018-04-25T11:52:52.796Z,4.87
2018-04-25T11:55:21.125Z,3.50
2018-04-25T11:57:48.649Z,3.90
2018-04-25T12:00:16.177Z,4.13
2018-04-25T12:02:43.703Z,3.73
2018-04-25T12:05:11.225Z,3.63
2018-04-25T12:07:38.774Z,2.93
2018-04-25T12:10:06.305Z,2.70
2018-04-25T12:12:33.832Z,2.67
2018-04-25T12:15:01.351Z,2.50
2018-04-25T12:17:28.919Z,3.40
2018-04-25T12:19:56.520Z,3.10
2018-04-25T12:22:24.037Z,2.93
2018-04-25T12:24:51.567Z,3.23
2018-04-25T12:27:19.114Z,3.30
2018-04-25T12:29:46.618Z,2.90
2018-04-25T12:32:14.147Z,3.50
2018-04-25T12:34:41.658Z,3.10
2018-04-25T12:37:09.181Z,3.43
2018-04-25T12:39:36.802Z,3.50
2018-04-25T12:42:04.341Z,3.50
2018-04-25T12:44:31.856Z,3.80
2018-04-25T12:47:00.161Z,3.87
2018-04-25T12:49:27.706Z,4.40
2018-04-25T12:51:55.249Z,4.60
2018-04-25T12:54:22.783Z,4.60
2018-04-25T12:56:50.326Z,5.20
2018-04-25T12:59:17.840Z,4.50
2018-04-25T13:01:45.447Z,4.60
2018-04-25T13:04:12.879Z,4.23
2018-04-25T13:06:40.401Z,4.60
2018-04-25T13:09:08.680Z,5.20
2018-04-25T13:11:36.986Z,4.10
2018-04-25T13:14:04.515Z,4.13
2018-04-25T13:16:32.803Z,3.60
2018-04-25T13:19:00.316Z,3.97
2018-04-25T13:21:27.864Z,4.60
2018-04-25T13:23:55.392Z,4.00
2018-04-25T13:26:22.906Z,4.23
2018-04-25T13:28:50.429Z,4.00
2018-04-25T13:31:17.994Z,3.90
2018-04-25T13:33:45.505Z,3.97
2018-04-25T13:36:13.803Z,3.60
2018-04-25T13:38:41.334Z,4.00
2018-04-25T13:41:09.640Z,9.60
2018-04-25T13:43:37.205Z,4.50
2018-04-25T13:46:04.697Z,3.10
2018-04-25T13:48:32.361Z,3.70
2018-04-25T13:51:00.695Z,3.70
2018-04-25T13:53:28.216Z,3.30
2018-04-25T13:55:56.562Z,3.87
2018-04-25T13:58:24.062Z,3.00
2018-04-25T14:00:51.701Z,3.27
2018-04-25T14:03:19.927Z,3.47
2018-04-25T14:05:47.466Z,4.10
2018-04-25T14:08:15.733Z,3.47
2018-04-25T14:10:44.069Z,3.13
2018-04-25T14:13:11.587Z,3.03
2018-04-25T14:15:39.134Z,3.10
2018-04-25T14:18:07.409Z,2.90
2018-04-25T14:20:35.681Z,2.40
2018-04-25T14:23:03.989Z,2.60
2018-04-25T14:25:31.509Z,2.00
2018-04-25T14:27:59.027Z,1.47
2018-04-25T14:30:26.580Z,1.90
2018-04-25T14:32:54.079Z,1.80
2018-04-25T14:35:21.614Z,1.83
2018-04-25T14:37:49.152Z,2.13
2018-04-25T14:40:16.682Z,2.10
2018-04-25T14:42:45.014Z,2.17
2018-04-25T14:45:12.549Z,2.00
2018-04-25T14:47:40.076Z,1.77
2018-04-25T14:50:08.370Z,1.77
2018-04-25T14:52:35.908Z,1.73
2018-04-25T14:55:04.185Z,2.43
2018-04-25T14:57:31.858Z,1.83
2018-04-25T14:59:59.549Z,2.20
2018-04-25T15:02:27.088Z,2.00
2018-04-25T15:04:54.781Z,2.33
2018-04-25T15:07:22.386Z,2.47
2018-04-25T15:09:50.825Z,1.73
2018-04-25T15:12:18.382Z,1.90
2018-04-25T15:14:45.907Z,1.90
2018-04-25T15:17:13.420Z,1.97
2018-04-25T15:19:41.230Z,1.80
2018-04-25T15:22:08.785Z,1.57
2018-04-25T15:24:36.325Z,1.70
2018-04-25T15:27:04.606Z,1.47
2018-04-25T15:29:32.861Z,1.97
2018-04-25T15:32:00.657Z,1.90
2018-04-25T15:34:28.202Z,1.50
2018-04-25T15:36:56.513Z,2.00
2018-04-25T15:39:24.018Z,1.80
2018-04-25T15:41:52.015Z,1.90
2018-04-25T15:44:20.507Z,1.27
2018-04-25T15:46:48.082Z,1.20
2018-04-25T15:49:16.172Z,0.93
2018-04-25T15:51:43.775Z,1.10
2018-04-25T15:54:12.463Z,1.00
2018-04-25T15:56:41.096Z,0.90
2018-04-25T15:59:08.685Z,1.00
2018-04-25T16:01:36.217Z,1.57
2018-04-25T16:04:03.769Z,1.60
2018-04-25T16:06:31.450Z,1.73
2018-04-25T16:08:58.975Z,1.73
2018-04-25T16:11:26.548Z,1.70
2018-04-25T16:13:54.109Z,2.10
2018-04-25T16:16:21.617Z,1.77
2018-04-25T16:18:49.144Z,1.33
2018-04-25T16:21:16.747Z,1.27
2018-04-25T16:23:44.218Z,1.60
2018-04-25T16:26:12.589Z,1.50
2018-04-25T16:28:40.886Z,1.50
2018-04-25T16:31:08.473Z,1.70
2018-04-25T16:33:35.994Z,1.20
2018-04-25T16:36:04.285Z,1.30
2018-04-25T16:38:31.852Z,1.27
2018-04-25T16:40:59.418Z,1.10
2018-04-25T16:43:26.933Z,1.20
2018-04-25T16:45:55.266Z,1.10
2018-04-25T16:48:22.789Z,1.30
2018-04-25T16:50:50.285Z,1.13
2018-04-25T16:53:17.805Z,1.00
2018-04-25T16:55:45.317Z,1.27
2018-04-25T16:58:12.992Z,1.37
2018-04-25T17:00:40.620Z,1.80
2018-04-25T17:03:08.157Z,1.30
2018-04-25T17:05:35.676Z,1.30
2018-04-25T17:08:03.438Z,1.20
2018-04-25T17:10:31.855Z,1.13
2018-04-25T17:12:59.629Z,1.20
2018-04-25T17:15:27.181Z,1.10
2018-04-25T17:17:54.709Z,1.43
2018-04-25T17:20:23.016Z,1.20
2018-04-25T17:22:50.619Z,1.20
2018-04-25T17:25:18.129Z,1.20
2018-04-25T17:27:45.638Z,1.10
2018-04-25T17:30:13.198Z,1.40
2018-04-25T17:32:40.741Z,1.40
2018-04-25T17:35:08.352Z,1.43
2018-04-25T17:37:35.906Z,1.60
2018-04-25T17:40:04.174Z,1.60
2018-04-25T17:42:31.708Z,1.60
2018-04-25T17:44:59.301Z,1.40
2018-04-25T17:47:27.924Z,2.10
2018-04-25T17:49:55.585Z,1.90
2018-04-25T17:52:23.128Z,1.90
2018-04-25T17:54:50.649Z,1.37
2018-04-25T17:57:18.263Z,1.87
2018-04-25T17:59:45.963Z,1.90
2018-04-25T18:02:13.469Z,1.80
2018-04-25T18:04:41.014Z,2.17
2018-04-25T18:07:09.512Z,1.83
2018-04-25T18:09:37.483Z,1.70
2018-04-25T18:12:05.138Z,1.67
2018-04-25T18:14:32.691Z,1.80
2018-04-25T18:17:00.227Z,2.00
2018-04-25T18:19:28.275Z,1.63
2018-04-25T18:21:55.863Z,1.90
2018-04-25T18:24:23.405Z,2.10
2018-04-25T18:26:50.964Z,2.20
2018-04-25T18:29:18.850Z,1.90
2018-04-25T18:31:47.167Z,1.83
2018-04-25T18:34:14.713Z,2.13
2018-04-25T18:36:42.213Z,2.17
2018-04-25T18:39:10.038Z,2.00
2018-04-25T18:41:38.304Z,2.03
2018-04-25T18:44:07.001Z,2.10
2018-04-25T18:46:34.660Z,2.23
2018-04-25T18:49:02.504Z,2.60
2018-04-25T18:51:30.316Z,2.60
2018-04-25T18:53:57.944Z,2.47
2018-04-25T18:56:25.520Z,2.60
2018-04-25T18:58:53.244Z,2.70
2018-04-25T19:01:21.154Z,2.63
2018-04-25T19:03:48.691Z,2.67
2018-04-25T19:06:17.058Z,2.90
2018-04-25T19:08:45.519Z,2.60
2018-04-25T19:11:14.025Z,2.30
2018-04-25T19:13:41.616Z,2.20
2018-04-25T19:16:09.293Z,2.70
2018-04-25T19:18:36.817Z,2.50
2018-04-25T19:21:04.337Z,3.73
2018-04-25T19:23:31.857Z,2.70
2018-04-25T19:25:59.473Z,2.93
2018-04-25T19:28:27.848Z,2.40
2018-04-25T19:30:56.166Z,2.80
2018-04-25T19:33:23.692Z,2.53
2018-04-25T19:35:52.022Z,2.40
2018-04-25T19:38:19.675Z,2.73
2018-04-25T19:40:47.218Z,2.17
2018-04-25T19:43:15.303Z,2.53
2018-04-25T19:45:42.874Z,2.40
2018-04-25T19:48:11.258Z,2.60
2018-04-25T19:50:38.876Z,2.40
2018-04-25T19:53:07.180Z,2.60
2018-04-25T19:55:34.721Z,2.60
2018-04-25T19:58:02.282Z,2.67
2018-04-25T20:00:30.166Z,2.20
2018-04-25T20:02:57.855Z,1.87
2018-04-25T20:05:25.386Z,2.70
2018-04-25T20:07:52.954Z,2.50
2018-04-25T20:10:20.565Z,2.57
2018-04-25T20:12:48.974Z,2.53
2018-04-25T20:15:16.549Z,2.27
2018-04-25T20:17:44.098Z,2.63
2018-04-25T20:20:11.668Z,2.60
2018-04-25T20:22:39.292Z,2.60
2018-04-25T20:25:06.826Z,2.53
2018-04-25T20:27:34.396Z,3.20
2018-04-25T20:30:02.021Z,3.27
2018-04-25T20:32:29.650Z,3.30
2018-04-25T20:34:57.492Z,3.13
2018-04-25T20:37:26.198Z,3.17
2018-04-25T20:39:54.577Z,3.17
2018-04-25T20:42:22.092Z,3.60
2018-04-25T20:44:49.798Z,3.80
2018-04-25T20:47:17.393Z,3.70
2018-04-25T20:49:44.903Z,3.77
2018-04-25T20:52:13.186Z,3.93
2018-04-25T20:54:41.507Z,3.93
2018-04-25T20:57:09.017Z,4.10
2018-04-25T20:59:37.320Z,4.10
2018-04-25T21:02:04.846Z,3.67
2018-04-25T21:04:33.138Z,4.07
2018-04-25T21:07:00.635Z,3.47
2018-04-25T21:09:28.141Z,3.50
2018-04-25T21:11:56.467Z,3.80
2018-04-25T21:14:23.990Z,4.10
2018-04-25T21:16:52.293Z,3.60
2018-04-25T21:19:19.826Z,3.80
2018-04-25T21:21:48.105Z,4.40
2018-04-25T21:24:16.414Z,4.50
2018-04-25T21:26:43.949Z,4.50
2018-04-25T21:29:11.466Z,4.10
2018-04-25T21:31:39.055Z,3.80
2018-04-25T21:34:07.368Z,3.80
2018-04-25T21:36:34.902Z,4.50
2018-04-25T21:39:02.464Z,4.00
2018-04-25T21:41:30.020Z,4.40
2018-04-25T21:43:57.598Z,4.13
2018-04-25T21:46:25.126Z,4.43
2018-04-25T21:48:53.458Z,3.70
2018-04-25T21:51:21.040Z,4.20
2018-04-25T21:53:48.572Z,4.30
2018-04-25T21:56:16.094Z,3.93
2018-04-25T21:58:43.662Z,3.90
2018-04-25T22:01:11.188Z,4.07
2018-04-25T22:03:39.518Z,4.00
2018-04-25T22:06:07.049Z,3.87
2018-04-25T22:08:34.608Z,4.27
2018-04-25T22:11:02.126Z,4.43
2018-04-25T22:13:29.665Z,4.67
2018-04-25T22:15:57.165Z,4.70
2018-04-25T22:18:25.485Z,4.80
2018-04-25T22:20:52.990Z,4.60
2018-04-25T22:23:21.299Z,4.80
2018-04-25T22:25:48.826Z,4.80
2018-04-25T22:28:17.109Z,4.60
2018-04-25T22:30:45.392Z,5.00
2018-04-25T22:33:13.657Z,7.03
2018-04-25T22:35:41.172Z,8.33
2018-04-25T22:38:08.671Z,15.80
2018-04-25T22:40:36.986Z,7.20
2018-04-25T22:43:04.527Z,5.20
2018-04-25T22:45:32.797Z,7.67
2018-04-25T22:48:01.117Z,8.40
2018-04-25T22:50:28.664Z,5.20
2018-04-25T22:52:56.167Z,5.40
2018-04-25T22:55:23.673Z,5.00
2018-04-25T22:57:51.194Z,4.97
2018-04-25T23:00:19.590Z,5.00
2018-04-25T23:02:47.898Z,5.57
2018-04-25T23:05:15.425Z,5.20
2018-04-25T23:07:43.713Z,5.23
2018-04-25T23:10:11.233Z,5.30
2018-04-25T23:12:38.725Z,5.53
2018-04-25T23:15:06.238Z,5.57
2018-04-25T23:17:33.778Z,5.90
2018-04-25T23:20:01.361Z,5.73
2018-04-25T23:22:28.900Z,6.10
2018-04-25T23:24:56.485Z,5.97
2018-04-25T23:27:23.945Z,5.53
2018-04-25T23:29:51.482Z,6.10
2018-04-25T23:32:19.020Z,5.73
2018-04-25T23:34:46.523Z,5.60
2018-04-25T23:37:14.063Z,6.20
2018-04-25T23:39:41.581Z,5.43
2018-04-25T23:42:09.161Z,6.17
2018-04-25T23:44:36.691Z,6.00
2018-04-25T23:47:05.006Z,6.17
2018-04-25T23:49:32.553Z,6.17
2018-04-25T23:52:00.124Z,6.40
2018-04-25T23:54:27.654Z,6.23
2018-04-25T23:56:55.191Z,5.50
2018-04-25T23:59:23.479Z,6.20
